Pacific Baron — VD4360 — position and weather

sailwx.info

Track history (hours):
 
Tides and Currents Weather Stations Pressure Air Temp Water Temp Dewpoint Dewpoint Depression Visibility Wind Speed Wind Dir Waves Ship Positions

Pacific Baron

Last reported at 2018-Jun-17 22:49 UTC. Time now 2018-Jun-19 08:22 UTC.
Position N 48°53' W 125°23'.

Length 18 m.

Type: Fishing. MMSI: 316007088.

Date/timePositionNaut miles runAvg speedWind from/ knotsBaromVisibWave heightAir tempDewpointWater temp
2018-Jun-17 22:49N 48°53' W 125°23'2 8.1
2018-Jun-17 22:30N 48°54' W 125°26'4 7.6
2018-Jun-17 22:00N 48°56' W 125°32'1 1.1
2018-Jun-17 21:28N 48°56' W 125°32'0 0.3
2018-Jun-17 20:59N 48°56' W 125°32'0 0.1
2018-Jun-17 20:29N 48°56' W 125°32'2 3.4
2018-Jun-17 20:00N 48°55' W 125°31'4 7.5
2018-Jun-17 19:30N 48°55' W 125°25'27 7.4
2018-Jun-17 15:53N 49°08' W 124°49'4 8.8
2018-Jun-17 15:28N 49°11' W 124°49'3 6.0
2018-Jun-17 14:59N 49°14' W 124°49'0 0.0
2018-Jun-17 14:29N 49°14' W 124°49'0 0.0
2018-Jun-17 13:59N 49°14' W 124°49'0 0.0
2018-Jun-17 13:29N 49°14' W 124°49'0 0.0
2018-Jun-17 12:59N 49°14' W 124°49'0 0.0
2018-Jun-17 12:29N 49°14' W 124°49'0 0.0
2018-Jun-17 11:59N 49°14' W 124°49'0 0.0
2018-Jun-17 11:26N 49°14' W 124°49'0 0.0
2018-Jun-17 10:56N 49°14' W 124°49'0 0.0
2018-Jun-17 10:26N 49°14' W 124°49'0 0.0
2018-Jun-17 09:56N 49°14' W 124°49'0 0.0
2018-Jun-17 09:26N 49°14' W 124°49'0 0.0
2018-Jun-17 08:56N 49°14' W 124°49'0 0.0
2018-Jun-17 08:26N 49°14' W 124°49'0 0.0
2018-Jun-17 07:56N 49°14' W 124°49'0 0.0
2018-Jun-17 07:26N 49°14' W 124°49'0 0.0
2018-Jun-17 06:56N 49°14' W 124°49'0 0.0
2018-Jun-17 06:26N 49°14' W 124°49'0 0.0
2018-Jun-17 05:56N 49°14' W 124°49'0 0.0
2018-Jun-17 05:26N 49°14' W 124°49'0 0.0
2018-Jun-17 04:56N 49°14' W 124°49'0 0.0
2018-Jun-17 04:26N 49°14' W 124°49'0 0.0
2018-Jun-17 03:56N 49°14' W 124°49'0 0.0
2018-Jun-17 03:26N 49°14' W 124°49'0 0.0
2018-Jun-17 02:56N 49°14' W 124°49'0 0.0
2018-Jun-17 02:26N 49°14' W 124°49'0 0.0
2018-Jun-17 01:56N 49°14' W 124°49'0 0.0
2018-Jun-17 01:26N 49°14' W 124°49'0 0.0
2018-Jun-17 00:56N 49°14' W 124°49'0 0.0
2018-Jun-17 00:26N 49°14' W 124°49'0 0.0
2018-Jun-16 23:56N 49°14' W 124°49'0 0.0
2018-Jun-16 23:26N 49°14' W 124°49'0 0.0
2018-Jun-16 22:56N 49°14' W 124°49'0 0.0
2018-Jun-16 22:20N 49°14' W 124°49'0 0.0
2018-Jun-16 21:56N 49°14' W 124°49'0 0.0
2018-Jun-16 21:26N 49°14' W 124°49'0 0.0
2018-Jun-16 20:56N 49°14' W 124°49'0 0.0
2018-Jun-16 20:26N 49°14' W 124°49'0 0.0
2018-Jun-16 19:56N 49°14' W 124°49'0 0.0
2018-Jun-16 19:26N 49°14' W 124°49'0 0.0
2018-Jun-16 18:56N 49°14' W 124°49'0 0.0
2018-Jun-16 18:26N 49°14' W 124°49'0 0.0
2018-Jun-16 17:50N 49°14' W 124°49'0 0.0
2018-Jun-16 17:26N 49°14' W 124°49'0 0.0
2018-Jun-16 16:50N 49°14' W 124°49'0 0.0
2018-Jun-16 16:26N 49°14' W 124°49'0 0.0
2018-Jun-16 15:56N 49°14' W 124°49'0 0.0
2018-Jun-16 15:26N 49°14' W 124°49'0 0.0
2018-Jun-16 14:56N 49°14' W 124°49'0 0.0
2018-Jun-16 14:26N 49°14' W 124°49'0 0.0
2018-Jun-16 13:56N 49°14' W 124°49'0 0.0
2018-Jun-16 13:26N 49°14' W 124°49'0 0.0
2018-Jun-16 12:56N 49°14' W 124°49'0 0.0
2018-Jun-16 12:26N 49°14' W 124°49'0 0.0
2018-Jun-16 11:56N 49°14' W 124°49'0 0.0
2018-Jun-16 11:26N 49°14' W 124°49'0 0.0
2018-Jun-16 10:56N 49°14' W 124°49'0 0.0
2018-Jun-16 10:26N 49°14' W 124°49'0 0.0
2018-Jun-16 09:56N 49°14' W 124°49'0 0.0
2018-Jun-16 09:26N 49°14' W 124°49'0 0.0
2018-Jun-16 08:56N 49°14' W 124°49'0 0.0
2018-Jun-16 08:26N 49°14' W 124°49'0 0.0
2018-Jun-16 07:56N 49°14' W 124°49'0 0.0
2018-Jun-16 07:26N 49°14' W 124°49'0 0.0
2018-Jun-16 06:56N 49°14' W 124°49'0 0.0
2018-Jun-16 06:26N 49°14' W 124°49'0 0.0
2018-Jun-16 05:56N 49°14' W 124°49'0 0.0
2018-Jun-16 05:26N 49°14' W 124°49'0 0.0
2018-Jun-16 04:56N 49°14' W 124°49'0 0.0
2018-Jun-16 04:26N 49°14' W 124°49'0 0.0
2018-Jun-16 03:50N 49°14' W 124°49'0 0.0
2018-Jun-16 03:26N 49°14' W 124°49'0 0.0
2018-Jun-16 02:56N 49°14' W 124°49'0 0.0
2018-Jun-16 02:20N 49°14' W 124°49'0 0.0
2018-Jun-16 01:56N 49°14' W 124°49'0 0.0
2018-Jun-16 01:26N 49°14' W 124°49'0 0.0
2018-Jun-16 00:56N 49°14' W 124°49'0 0.0
2018-Jun-16 00:26N 49°14' W 124°49'0 0.0
2018-Jun-15 23:56N 49°14' W 124°49'0 0.0
2018-Jun-15 23:26N 49°14' W 124°49'0 0.0
2018-Jun-15 22:56N 49°14' W 124°49'0 0.0
2018-Jun-15 22:26N 49°14' W 124°49'0 0.0
2018-Jun-15 21:56N 49°14' W 124°49'0 0.0
2018-Jun-15 21:29N 49°14' W 124°49'0 0.0
2018-Jun-15 20:59N 49°14' W 124°49'0 0.0
2018-Jun-15 20:29N 49°14' W 124°49'0 0.0
2018-Jun-15 19:47N 49°14' W 124°49'0 0.0
2018-Jun-15 19:29N 49°14' W 124°49'0 0.0
2018-Jun-15 18:59N 49°14' W 124°49'0 0.0
2018-Jun-15 18:29N 49°14' W 124°49'0 0.0
2018-Jun-15 17:47N 49°14' W 124°49'0 0.0
2018-Jun-15 17:29N 49°14' W 124°49'0 0.0
2018-Jun-15 16:59N 49°14' W 124°49'0 0.0
2018-Jun-15 16:29N 49°14' W 124°49'0 0.0
2018-Jun-15 15:59N 49°14' W 124°49'0 0.0
2018-Jun-15 15:29N 49°14' W 124°49'0 0.0
2018-Jun-15 14:59N 49°14' W 124°49'0 0.0
2018-Jun-15 14:29N 49°14' W 124°49'0 0.0
2018-Jun-15 13:59N 49°14' W 124°49'0 0.0
2018-Jun-15 13:29N 49°14' W 124°49'0 0.0
2018-Jun-15 12:59N 49°14' W 124°49'0 0.0
2018-Jun-15 12:29N 49°14' W 124°49'0 0.0
2018-Jun-15 11:59N 49°14' W 124°49'0 0.0
2018-Jun-15 11:29N 49°14' W 124°49'0 0.0
2018-Jun-15 10:59N 49°14' W 124°49'0 0.0
2018-Jun-15 10:29N 49°14' W 124°49'0 0.0
2018-Jun-15 09:59N 49°14' W 124°49'0 0.0
2018-Jun-15 09:29N 49°14' W 124°49'0 0.0
2018-Jun-15 08:59N 49°14' W 124°49'0 0.0
2018-Jun-15 08:29N 49°14' W 124°49'0 0.0
2018-Jun-15 07:59N 49°14' W 124°49'0 0.0
2018-Jun-15 07:29N 49°14' W 124°49'0 0.0
2018-Jun-15 06:59N 49°14' W 124°49'0 0.0
2018-Jun-15 06:23N 49°14' W 124°49'0 0.0
2018-Jun-15 05:59N 49°14' W 124°49'0 0.0
2018-Jun-15 05:29N 49°14' W 124°49'0 0.0
2018-Jun-15 04:59N 49°14' W 124°49'0 0.0
2018-Jun-15 04:29N 49°14' W 124°49'0 0.0
2018-Jun-15 03:59N 49°14' W 124°49'0 0.0
2018-Jun-15 03:29N 49°14' W 124°49'0 0.0
2018-Jun-15 02:59N 49°14' W 124°49'0 0.0
2018-Jun-15 02:29N 49°14' W 124°49'0 0.0
2018-Jun-15 01:56N 49°14' W 124°49'0 0.0
2018-Jun-15 01:20N 49°14' W 124°49'0 0.0
2018-Jun-15 00:56N 49°14' W 124°49'0 0.0
2018-Jun-15 00:26N 49°14' W 124°49'0 0.0
2018-Jun-14 23:50N 49°14' W 124°49'0 0.0
2018-Jun-14 23:26N 49°14' W 124°49'0 0.0
2018-Jun-14 22:56N 49°14' W 124°49'0 0.0
2018-Jun-14 22:26N 49°14' W 124°49'0 0.0
2018-Jun-14 21:56N 49°14' W 124°49'0 0.0
2018-Jun-14 21:26N 49°14' W 124°49'0 0.0
2018-Jun-14 20:56N 49°14' W 124°49'0 0.0
2018-Jun-14 20:26N 49°14' W 124°49'0 0.0
2018-Jun-14 19:56N 49°14' W 124°49'0 0.0
2018-Jun-14 19:26N 49°14' W 124°49'0 0.0
2018-Jun-14 18:56N 49°14' W 124°49'0 0.0
2018-Jun-14 18:26N 49°14' W 124°49'0 0.0
2018-Jun-14 17:56N 49°14' W 124°49'0 0.0
2018-Jun-14 17:26N 49°14' W 124°49'0 0.0
2018-Jun-14 16:56N 49°14' W 124°49'0 0.0
2018-Jun-14 16:26N 49°14' W 124°49'0 0.0
2018-Jun-14 15:56N 49°14' W 124°49'0 0.0
2018-Jun-14 15:26N 49°14' W 124°49'0 0.0
2018-Jun-14 14:56N 49°14' W 124°49'0 0.0
2018-Jun-14 14:26N 49°14' W 124°49'0 0.0
2018-Jun-14 13:56N 49°14' W 124°49'0 0.0
2018-Jun-14 13:26N 49°14' W 124°49'0 0.0
2018-Jun-14 12:56N 49°14' W 124°49'0 0.0
2018-Jun-14 12:26N 49°14' W 124°49'0 0.0
2018-Jun-14 11:56N 49°14' W 124°49'0 0.0
2018-Jun-14 11:26N 49°14' W 124°49'0 0.0
2018-Jun-14 10:56N 49°14' W 124°49'0 0.0
2018-Jun-14 10:26N 49°14' W 124°49'0 0.0
2018-Jun-14 09:56N 49°14' W 124°49'0 0.0
2018-Jun-14 09:26N 49°14' W 124°49'0 0.0
2018-Jun-14 08:56N 49°14' W 124°49'0 0.0
2018-Jun-14 08:14N 49°14' W 124°49'0 0.0
2018-Jun-14 07:56N 49°14' W 124°49'0 0.0
2018-Jun-14 07:26N 49°14' W 124°49'0 0.0
2018-Jun-14 06:56N 49°14' W 124°49'0 0.0
2018-Jun-14 06:26N 49°14' W 124°49'0 0.0
2018-Jun-14 05:44N 49°14' W 124°49'0 0.0
2018-Jun-14 05:20N 49°14' W 124°49'0 0.0
2018-Jun-14 04:56N 49°14' W 124°49'0 0.0
2018-Jun-14 04:26N 49°14' W 124°49'0 0.0
2018-Jun-14 03:56N 49°14' W 124°49'0 0.0
2018-Jun-14 03:26N 49°14' W 124°49'0 0.0
2018-Jun-14 02:56N 49°14' W 124°49'0 0.0
2018-Jun-14 02:26N 49°14' W 124°49'0 0.0
2018-Jun-14 01:56N 49°14' W 124°49'0 0.0
2018-Jun-14 01:26N 49°14' W 124°49'0 0.0
2018-Jun-14 00:56N 49°14' W 124°49'0 0.0
2018-Jun-14 00:26N 49°14' W 124°49'0 0.0
2018-Jun-13 23:57N 49°14' W 124°49'0 0.0
2018-Jun-13 23:26N 49°14' W 124°49'0 0.0
2018-Jun-13 22:57N 49°14' W 124°49'0 0.0
2018-Jun-13 22:21N 49°14' W 124°49'0 0.0
2018-Jun-13 21:56N 49°14' W 124°49'0 0.0
2018-Jun-13 21:27N 49°14' W 124°49'0 0.0
2018-Jun-13 20:51N 49°14' W 124°49'0 0.0
2018-Jun-13 20:27N 49°14' W 124°49'0 0.0
2018-Jun-13 19:57N 49°14' W 124°49'0 0.0
2018-Jun-13 19:27N 49°14' W 124°49'0 0.0
2018-Jun-13 18:57N 49°14' W 124°49'0 0.0
2018-Jun-13 18:27N 49°14' W 124°49'0 0.0
2018-Jun-13 17:57N 49°14' W 124°49'0 0.0
2018-Jun-13 17:27N 49°14' W 124°49'0 0.0
2018-Jun-13 16:57N 49°14' W 124°49'0 0.0
2018-Jun-13 16:27N 49°14' W 124°49'0 0.1
2018-Jun-13 16:00N 49°14' W 124°49'0 0.1
2018-Jun-13 15:26N 49°14' W 124°49'0 0.2
2018-Jun-13 15:00N 49°14' W 124°49'4 6.9
2018-Jun-13 14:29N 49°11' W 124°49'  
2018-Jun-10 20:01N 48°37' W 124°49'0 8.1
2018-Jun-10 19:59N 48°37' W 124°48'4 7.4
2018-Jun-10 19:30N 48°35' W 124°43'4 7.3
2018-Jun-10 19:00N 48°34' W 124°38'4 7.0
2018-Jun-10 18:30N 48°32' W 124°33'4 7.1
2018-Jun-10 17:59N 48°31' W 124°28'4 7.0
2018-Jun-10 17:28N 48°30' W 124°23'4 7.5
2018-Jun-10 16:59N 48°28' W 124°18'3 7.0
2018-Jun-10 16:30N 48°27' W 124°13'4 7.5
2018-Jun-10 15:55N 48°25' W 124°07'31 7.9
2018-Jun-10 12:01N 48°23' W 123°21'010.9
2018-Jun-10 12:00N 48°23' W 123°20'4 8.7
2018-Jun-10 11:30N 48°26' W 123°16'2 5.0
2018-Jun-10 11:00N 48°29' W 123°18'0 0.0
2018-Jun-10 10:30N 48°29' W 123°18'0 0.0
2018-Jun-10 10:00N 48°29' W 123°18'0 0.0
2018-Jun-10 09:30N 48°29' W 123°18'0 0.0
2018-Jun-10 09:00N 48°29' W 123°18'0 0.0
2018-Jun-10 08:30N 48°29' W 123°18'0 0.0
2018-Jun-10 08:00N 48°29' W 123°18'0 0.0
2018-Jun-10 07:30N 48°29' W 123°18'0 0.0
2018-Jun-10 07:00N 48°29' W 123°18'0 0.0
2018-Jun-10 06:30N 48°29' W 123°18'0 0.0
2018-Jun-10 06:00N 48°29' W 123°18'0 0.0
2018-Jun-10 05:27N 48°29' W 123°18'0 0.0
2018-Jun-10 05:00N 48°29' W 123°18'0 0.0
2018-Jun-10 04:30N 48°29' W 123°18'0 0.0
2018-Jun-10 03:57N 48°29' W 123°18'0 0.0
2018-Jun-10 03:30N 48°29' W 123°18'10 6.7
2018-Jun-10 02:01N 48°38' W 123°23'0 7.8
2018-Jun-10 01:59N 48°38' W 123°23'4 7.6
2018-Jun-10 01:30N 48°42' W 123°25'4 8.2
2018-Jun-10 01:00N 48°43' W 123°30'4 7.4
2018-Jun-10 00:30N 48°46' W 123°34'4 8.1
2018-Jun-10 00:00N 48°50' W 123°35'4 8.2
2018-Jun-09 23:29N 48°54' W 123°37'76 3.3
2018-Jun-09 00:12N 49°48' W 124°59'3 8.8
2018-Jun-08 23:54N 49°50' W 125°02'3 6.5
2018-Jun-08 23:28N 49°52' W 125°05'8 6.7
2018-Jun-08 22:16N 49°59' W 125°11'2 6.4
2018-Jun-08 22:00N 50°00' W 125°13'2 4.4
2018-Jun-08 21:29N 50°02' W 125°15'2 3.9
2018-Jun-08 21:00N 50°04' W 125°16'3 1.4
2018-Jun-08 19:07N 50°06' W 125°18'  
Track history (hours):
 
Tides and Currents Weather Stations Pressure Air Temp Water Temp Dewpoint Dewpoint Depression Visibility Wind Speed Wind Dir Waves Ship Positions

Pacific Baron

Last reported at 2018-Jun-17 22:49 UTC. Time now 2018-Jun-19 08:22 UTC.
Position N 48°53' W 125°23'.

Length 18 m.

Type: Fishing. MMSI: 316007088.

Date/timePositionNaut miles runAvg speedWind from/ knotsBaromVisibWave heightAir tempDewpointWater temp
2018-Jun-17 22:49N 48°53' W 125°23'2 8.1
2018-Jun-17 22:30N 48°54' W 125°26'4 7.6
2018-Jun-17 22:00N 48°56' W 125°32'1 1.1
2018-Jun-17 21:28N 48°56' W 125°32'0 0.3
2018-Jun-17 20:59N 48°56' W 125°32'0 0.1
2018-Jun-17 20:29N 48°56' W 125°32'2 3.4
2018-Jun-17 20:00N 48°55' W 125°31'4 7.5
2018-Jun-17 19:30N 48°55' W 125°25'27 7.4
2018-Jun-17 15:53N 49°08' W 124°49'4 8.8
2018-Jun-17 15:28N 49°11' W 124°49'3 6.0
2018-Jun-17 14:59N 49°14' W 124°49'0 0.0
2018-Jun-17 14:29N 49°14' W 124°49'0 0.0
2018-Jun-17 13:59N 49°14' W 124°49'0 0.0
2018-Jun-17 13:29N 49°14' W 124°49'0 0.0
2018-Jun-17 12:59N 49°14' W 124°49'0 0.0
2018-Jun-17 12:29N 49°14' W 124°49'0 0.0
2018-Jun-17 11:59N 49°14' W 124°49'0 0.0
2018-Jun-17 11:26N 49°14' W 124°49'0 0.0
2018-Jun-17 10:56N 49°14' W 124°49'0 0.0
2018-Jun-17 10:26N 49°14' W 124°49'0 0.0
2018-Jun-17 09:56N 49°14' W 124°49'0 0.0
2018-Jun-17 09:26N 49°14' W 124°49'0 0.0
2018-Jun-17 08:56N 49°14' W 124°49'0 0.0
2018-Jun-17 08:26N 49°14' W 124°49'0 0.0
2018-Jun-17 07:56N 49°14' W 124°49'0 0.0
2018-Jun-17 07:26N 49°14' W 124°49'0 0.0
2018-Jun-17 06:56N 49°14' W 124°49'0 0.0
2018-Jun-17 06:26N 49°14' W 124°49'0 0.0
2018-Jun-17 05:56N 49°14' W 124°49'0 0.0
2018-Jun-17 05:26N 49°14' W 124°49'0 0.0
2018-Jun-17 04:56N 49°14' W 124°49'0 0.0
2018-Jun-17 04:26N 49°14' W 124°49'0 0.0
2018-Jun-17 03:56N 49°14' W 124°49'0 0.0
2018-Jun-17 03:26N 49°14' W 124°49'0 0.0
2018-Jun-17 02:56N 49°14' W 124°49'0 0.0
2018-Jun-17 02:26N 49°14' W 124°49'0 0.0
2018-Jun-17 01:56N 49°14' W 124°49'0 0.0
2018-Jun-17 01:26N 49°14' W 124°49'0 0.0
2018-Jun-17 00:56N 49°14' W 124°49'0 0.0
2018-Jun-17 00:26N 49°14' W 124°49'0 0.0
2018-Jun-16 23:56N 49°14' W 124°49'0 0.0
2018-Jun-16 23:26N 49°14' W 124°49'0 0.0
2018-Jun-16 22:56N 49°14' W 124°49'0 0.0
2018-Jun-16 22:20N 49°14' W 124°49'0 0.0
2018-Jun-16 21:56N 49°14' W 124°49'0 0.0
2018-Jun-16 21:26N 49°14' W 124°49'0 0.0
2018-Jun-16 20:56N 49°14' W 124°49'0 0.0
2018-Jun-16 20:26N 49°14' W 124°49'0 0.0
2018-Jun-16 19:56N 49°14' W 124°49'0 0.0
2018-Jun-16 19:26N 49°14' W 124°49'0 0.0
2018-Jun-16 18:56N 49°14' W 124°49'0 0.0
2018-Jun-16 18:26N 49°14' W 124°49'0 0.0
2018-Jun-16 17:50N 49°14' W 124°49'0 0.0
2018-Jun-16 17:26N 49°14' W 124°49'0 0.0
2018-Jun-16 16:50N 49°14' W 124°49'0 0.0
2018-Jun-16 16:26N 49°14' W 124°49'0 0.0
2018-Jun-16 15:56N 49°14' W 124°49'0 0.0
2018-Jun-16 15:26N 49°14' W 124°49'0 0.0
2018-Jun-16 14:56N 49°14' W 124°49'0 0.0
2018-Jun-16 14:26N 49°14' W 124°49'0 0.0
2018-Jun-16 13:56N 49°14' W 124°49'0 0.0
2018-Jun-16 13:26N 49°14' W 124°49'0 0.0
2018-Jun-16 12:56N 49°14' W 124°49'0 0.0
2018-Jun-16 12:26N 49°14' W 124°49'0 0.0
2018-Jun-16 11:56N 49°14' W 124°49'0 0.0
2018-Jun-16 11:26N 49°14' W 124°49'0 0.0
2018-Jun-16 10:56N 49°14' W 124°49'0 0.0
2018-Jun-16 10:26N 49°14' W 124°49'0 0.0
2018-Jun-16 09:56N 49°14' W 124°49'0 0.0
2018-Jun-16 09:26N 49°14' W 124°49'0 0.0
2018-Jun-16 08:56N 49°14' W 124°49'0 0.0
2018-Jun-16 08:26N 49°14' W 124°49'0 0.0
2018-Jun-16 07:56N 49°14' W 124°49'0 0.0
2018-Jun-16 07:26N 49°14' W 124°49'0 0.0
2018-Jun-16 06:56N 49°14' W 124°49'0 0.0
2018-Jun-16 06:26N 49°14' W 124°49'0 0.0
2018-Jun-16 05:56N 49°14' W 124°49'0 0.0
2018-Jun-16 05:26N 49°14' W 124°49'0 0.0
2018-Jun-16 04:56N 49°14' W 124°49'0 0.0
2018-Jun-16 04:26N 49°14' W 124°49'0 0.0
2018-Jun-16 03:50N 49°14' W 124°49'0 0.0
2018-Jun-16 03:26N 49°14' W 124°49'0 0.0
2018-Jun-16 02:56N 49°14' W 124°49'0 0.0
2018-Jun-16 02:20N 49°14' W 124°49'0 0.0
2018-Jun-16 01:56N 49°14' W 124°49'0 0.0
2018-Jun-16 01:26N 49°14' W 124°49'0 0.0
2018-Jun-16 00:56N 49°14' W 124°49'0 0.0
2018-Jun-16 00:26N 49°14' W 124°49'0 0.0
2018-Jun-15 23:56N 49°14' W 124°49'0 0.0
2018-Jun-15 23:26N 49°14' W 124°49'0 0.0
2018-Jun-15 22:56N 49°14' W 124°49'0 0.0
2018-Jun-15 22:26N 49°14' W 124°49'0 0.0
2018-Jun-15 21:56N 49°14' W 124°49'0 0.0
2018-Jun-15 21:29N 49°14' W 124°49'0 0.0
2018-Jun-15 20:59N 49°14' W 124°49'0 0.0
2018-Jun-15 20:29N 49°14' W 124°49'0 0.0
2018-Jun-15 19:47N 49°14' W 124°49'0 0.0
2018-Jun-15 19:29N 49°14' W 124°49'0 0.0
2018-Jun-15 18:59N 49°14' W 124°49'0 0.0
2018-Jun-15 18:29N 49°14' W 124°49'0 0.0
2018-Jun-15 17:47N 49°14' W 124°49'0 0.0
2018-Jun-15 17:29N 49°14' W 124°49'0 0.0
2018-Jun-15 16:59N 49°14' W 124°49'0 0.0
2018-Jun-15 16:29N 49°14' W 124°49'0 0.0
2018-Jun-15 15:59N 49°14' W 124°49'0 0.0
2018-Jun-15 15:29N 49°14' W 124°49'0 0.0
2018-Jun-15 14:59N 49°14' W 124°49'0 0.0
2018-Jun-15 14:29N 49°14' W 124°49'0 0.0
2018-Jun-15 13:59N 49°14' W 124°49'0 0.0
2018-Jun-15 13:29N 49°14' W 124°49'0 0.0
2018-Jun-15 12:59N 49°14' W 124°49'0 0.0
2018-Jun-15 12:29N 49°14' W 124°49'0 0.0
2018-Jun-15 11:59N 49°14' W 124°49'0 0.0
2018-Jun-15 11:29N 49°14' W 124°49'0 0.0
2018-Jun-15 10:59N 49°14' W 124°49'0 0.0
2018-Jun-15 10:29N 49°14' W 124°49'0 0.0
2018-Jun-15 09:59N 49°14' W 124°49'0 0.0
2018-Jun-15 09:29N 49°14' W 124°49'0 0.0
2018-Jun-15 08:59N 49°14' W 124°49'0 0.0
2018-Jun-15 08:29N 49°14' W 124°49'0 0.0
2018-Jun-15 07:59N 49°14' W 124°49'0 0.0
2018-Jun-15 07:29N 49°14' W 124°49'0 0.0
2018-Jun-15 06:59N 49°14' W 124°49'0 0.0
2018-Jun-15 06:23N 49°14' W 124°49'0 0.0
2018-Jun-15 05:59N 49°14' W 124°49'0 0.0
2018-Jun-15 05:29N 49°14' W 124°49'0 0.0
2018-Jun-15 04:59N 49°14' W 124°49'0 0.0
2018-Jun-15 04:29N 49°14' W 124°49'0 0.0
2018-Jun-15 03:59N 49°14' W 124°49'0 0.0
2018-Jun-15 03:29N 49°14' W 124°49'0 0.0
2018-Jun-15 02:59N 49°14' W 124°49'0 0.0
2018-Jun-15 02:29N 49°14' W 124°49'0 0.0
2018-Jun-15 01:56N 49°14' W 124°49'0 0.0
2018-Jun-15 01:20N 49°14' W 124°49'0 0.0
2018-Jun-15 00:56N 49°14' W 124°49'0 0.0
2018-Jun-15 00:26N 49°14' W 124°49'0 0.0
2018-Jun-14 23:50N 49°14' W 124°49'0 0.0
2018-Jun-14 23:26N 49°14' W 124°49'0 0.0
2018-Jun-14 22:56N 49°14' W 124°49'0 0.0
2018-Jun-14 22:26N 49°14' W 124°49'0 0.0
2018-Jun-14 21:56N 49°14' W 124°49'0 0.0
2018-Jun-14 21:26N 49°14' W 124°49'0 0.0
2018-Jun-14 20:56N 49°14' W 124°49'0 0.0
2018-Jun-14 20:26N 49°14' W 124°49'0 0.0
2018-Jun-14 19:56N 49°14' W 124°49'0 0.0
2018-Jun-14 19:26N 49°14' W 124°49'0 0.0
2018-Jun-14 18:56N 49°14' W 124°49'0 0.0
2018-Jun-14 18:26N 49°14' W 124°49'0 0.0
2018-Jun-14 17:56N 49°14' W 124°49'0 0.0
2018-Jun-14 17:26N 49°14' W 124°49'0 0.0
2018-Jun-14 16:56N 49°14' W 124°49'0 0.0
2018-Jun-14 16:26N 49°14' W 124°49'0 0.0
2018-Jun-14 15:56N 49°14' W 124°49'0 0.0
2018-Jun-14 15:26N 49°14' W 124°49'0 0.0
2018-Jun-14 14:56N 49°14' W 124°49'0 0.0
2018-Jun-14 14:26N 49°14' W 124°49'0 0.0
2018-Jun-14 13:56N 49°14' W 124°49'0 0.0
2018-Jun-14 13:26N 49°14' W 124°49'0 0.0
2018-Jun-14 12:56N 49°14' W 124°49'0 0.0
2018-Jun-14 12:26N 49°14' W 124°49'0 0.0
2018-Jun-14 11:56N 49°14' W 124°49'0 0.0
2018-Jun-14 11:26N 49°14' W 124°49'0 0.0
2018-Jun-14 10:56N 49°14' W 124°49'0 0.0
2018-Jun-14 10:26N 49°14' W 124°49'0 0.0
2018-Jun-14 09:56N 49°14' W 124°49'0 0.0
2018-Jun-14 09:26N 49°14' W 124°49'0 0.0
2018-Jun-14 08:56N 49°14' W 124°49'0 0.0
2018-Jun-14 08:14N 49°14' W 124°49'0 0.0
2018-Jun-14 07:56N 49°14' W 124°49'0 0.0
2018-Jun-14 07:26N 49°14' W 124°49'0 0.0
2018-Jun-14 06:56N 49°14' W 124°49'0 0.0
2018-Jun-14 06:26N 49°14' W 124°49'0 0.0
2018-Jun-14 05:44N 49°14' W 124°49'0 0.0
2018-Jun-14 05:20N 49°14' W 124°49'0 0.0
2018-Jun-14 04:56N 49°14' W 124°49'0 0.0
2018-Jun-14 04:26N 49°14' W 124°49'0 0.0
2018-Jun-14 03:56N 49°14' W 124°49'0 0.0
2018-Jun-14 03:26N 49°14' W 124°49'0 0.0
2018-Jun-14 02:56N 49°14' W 124°49'0 0.0
2018-Jun-14 02:26N 49°14' W 124°49'0 0.0
2018-Jun-14 01:56N 49°14' W 124°49'0 0.0
2018-Jun-14 01:26N 49°14' W 124°49'0 0.0
2018-Jun-14 00:56N 49°14' W 124°49'0 0.0
2018-Jun-14 00:26N 49°14' W 124°49'0 0.0
2018-Jun-13 23:57N 49°14' W 124°49'0 0.0
2018-Jun-13 23:26N 49°14' W 124°49'0 0.0
2018-Jun-13 22:57N 49°14' W 124°49'0 0.0
2018-Jun-13 22:21N 49°14' W 124°49'0 0.0
2018-Jun-13 21:56N 49°14' W 124°49'0 0.0
2018-Jun-13 21:27N 49°14' W 124°49'0 0.0
2018-Jun-13 20:51N 49°14' W 124°49'0 0.0
2018-Jun-13 20:27N 49°14' W 124°49'0 0.0
2018-Jun-13 19:57N 49°14' W 124°49'0 0.0
2018-Jun-13 19:27N 49°14' W 124°49'0 0.0
2018-Jun-13 18:57N 49°14' W 124°49'0 0.0
2018-Jun-13 18:27N 49°14' W 124°49'0 0.0
2018-Jun-13 17:57N 49°14' W 124°49'0 0.0
2018-Jun-13 17:27N 49°14' W 124°49'0 0.0
2018-Jun-13 16:57N 49°14' W 124°49'0 0.0
2018-Jun-13 16:27N 49°14' W 124°49'0 0.1
2018-Jun-13 16:00N 49°14' W 124°49'0 0.1
2018-Jun-13 15:26N 49°14' W 124°49'0 0.2
2018-Jun-13 15:00N 49°14' W 124°49'4 6.9
2018-Jun-13 14:29N 49°11' W 124°49'  
2018-Jun-10 20:01N 48°37' W 124°49'0 8.1
2018-Jun-10 19:59N 48°37' W 124°48'4 7.4
2018-Jun-10 19:30N 48°35' W 124°43'4 7.3
2018-Jun-10 19:00N 48°34' W 124°38'4 7.0
2018-Jun-10 18:30N 48°32' W 124°33'4 7.1
2018-Jun-10 17:59N 48°31' W 124°28'4 7.0
2018-Jun-10 17:28N 48°30' W 124°23'4 7.5
2018-Jun-10 16:59N 48°28' W 124°18'3 7.0
2018-Jun-10 16:30N 48°27' W 124°13'4 7.5
2018-Jun-10 15:55N 48°25' W 124°07'31 7.9
2018-Jun-10 12:01N 48°23' W 123°21'010.9
2018-Jun-10 12:00N 48°23' W 123°20'4 8.7
2018-Jun-10 11:30N 48°26' W 123°16'2 5.0
2018-Jun-10 11:00N 48°29' W 123°18'0 0.0
2018-Jun-10 10:30N 48°29' W 123°18'0 0.0
2018-Jun-10 10:00N 48°29' W 123°18'0 0.0
2018-Jun-10 09:30N 48°29' W 123°18'0 0.0
2018-Jun-10 09:00N 48°29' W 123°18'0 0.0
2018-Jun-10 08:30N 48°29' W 123°18'0 0.0
2018-Jun-10 08:00N 48°29' W 123°18'0 0.0
2018-Jun-10 07:30N 48°29' W 123°18'0 0.0
2018-Jun-10 07:00N 48°29' W 123°18'0 0.0
2018-Jun-10 06:30N 48°29' W 123°18'0 0.0
2018-Jun-10 06:00N 48°29' W 123°18'0 0.0
2018-Jun-10 05:27N 48°29' W 123°18'0 0.0
2018-Jun-10 05:00N 48°29' W 123°18'0 0.0
2018-Jun-10 04:30N 48°29' W 123°18'0 0.0
2018-Jun-10 03:57N 48°29' W 123°18'0 0.0
2018-Jun-10 03:30N 48°29' W 123°18'10 6.7
2018-Jun-10 02:01N 48°38' W 123°23'0 7.8
2018-Jun-10 01:59N 48°38' W 123°23'4 7.6
2018-Jun-10 01:30N 48°42' W 123°25'4 8.2
2018-Jun-10 01:00N 48°43' W 123°30'4 7.4
2018-Jun-10 00:30N 48°46' W 123°34'4 8.1
2018-Jun-10 00:00N 48°50' W 123°35'4 8.2
2018-Jun-09 23:29N 48°54' W 123°37'76 3.3
2018-Jun-09 00:12N 49°48' W 124°59'3 8.8
2018-Jun-08 23:54N 49°50' W 125°02'3 6.5
2018-Jun-08 23:28N 49°52' W 125°05'8 6.7
2018-Jun-08 22:16N 49°59' W 125°11'2 6.4
2018-Jun-08 22:00N 50°00' W 125°13'2 4.4
2018-Jun-08 21:29N 50°02' W 125°15'2 3.9
2018-Jun-08 21:00N 50°04' W 125°16'3 1.4
2018-Jun-08 19:07N 50°06' W 125°18'  

Dump ship's entire track history